Time;durP1;ratioP1;P1;durP2;ratioP2;P2;SDS_P1;SDS_P2;PMS_P1;PMS_P2;Temp;Humidity;BMP_temperature;BMP_pressure;BME280_temperature;BME280_humidity;BME280_pressure;Samples;Min_cycle;Max_cycle;Signal;HPM_P1;HPM_P2
2022/05/01 00:01:00;;;;;;;200.63;48.67;;;5.60;99.90;6.20;94467.00;;;;7394899;19;20164;-80
2022/05/01 00:03:33;;;;;;;231.03;51.80;;;5.60;99.90;6.10;94467.00;;;;7396868;19;20133;-79
2022/05/01 00:06:15;;;;;;;232.00;49.27;;;5.60;99.90;6.20;94459.00;;;;7397802;19;20505;-79
2022/05/01 00:08:43;;;;;;;215.37;48.07;;;5.60;99.90;6.10;94484.00;;;;7397802;19;20489;-81
2022/05/01 00:11:17;;;;;;;295.17;53.90;;;5.60;99.90;6.10;94460.00;;;;7393100;19;20173;-79
2022/05/01 00:13:45;;;;;;;261.60;53.13;;;5.60;99.90;6.20;94479.00;;;;7398571;19;20153;-81
2022/05/01 00:16:13;;;;;;;166.53;46.67;;;5.60;99.90;6.10;94478.00;;;;7394982;19;20506;-79
2022/05/01 00:18:47;;;;;;;427.10;62.53;;;5.60;99.90;6.20;94483.00;;;;7398175;19;20142;-81
2022/05/01 00:21:15;;;;;;;211.07;49.23;;;5.60;99.90;6.10;94454.00;;;;7394914;19;20132;-80
2022/05/01 00:23:42;;;;;;;189.17;46.73;;;5.60;99.90;6.20;94446.00;;;;7392163;19;20148;-79
2022/05/01 00:26:15;;;;;;;222.77;51.63;;;5.50;99.90;6.10;94438.00;;;;7387209;19;20608;-80
2022/05/01 00:28:43;;;;;;;168.97;44.87;;;5.60;99.90;6.10;94456.00;;;;7397947;19;20141;-80
2022/05/01 00:31:10;;;;;;;552.50;70.53;;;5.60;99.90;6.10;94474.00;;;;7394828;19;20162;-81
2022/05/01 00:36:29;;;;;;;319.77;52.57;;;5.60;99.90;6.00;94444.00;;;;7394124;19;20651;-80
2022/05/01 00:39:08;;;;;;;194.50;46.23;;;5.60;99.90;6.00;94473.00;;;;7397388;19;20633;-81
2022/05/01 00:41:39;;;;;;;310.60;50.50;;;5.60;99.90;6.00;94442.00;;;;7394310;19;20157;-80
2022/05/01 00:44:18;;;;;;;161.77;44.57;;;5.60;99.90;6.00;94442.00;;;;7397339;19;20148;-79
2022/05/01 00:46:53;;;;;;;268.20;47.67;;;5.60;99.90;6.10;94466.00;;;;7393387;19;20129;-80
2022/05/01 00:49:28;;;;;;;177.60;42.13;;;5.60;99.90;6.00;94448.00;;;;7396878;19;20643;-81
2022/05/01 00:52:09;;;;;;;193.60;43.57;;;5.50;99.90;6.00;94469.00;;;;7398917;19;20580;-80
2022/05/01 00:54:43;;;;;;;230.20;42.37;;;5.50;99.90;5.90;94443.00;;;;7395669;19;20588;-79
2022/05/01 00:57:11;;;;;;;388.67;56.67;;;5.60;99.90;6.10;94436.00;;;;7395797;19;20152;-81
2022/05/01 00:59:38;;;;;;;240.63;46.83;;;5.50;99.90;6.10;94461.00;;;;7394060;19;20608;-79
2022/05/01 01:02:13;;;;;;;177.80;40.37;;;5.50;99.90;5.90;94459.00;;;;7392592;19;20158;-79
2022/05/01 01:04:41;;;;;;;250.67;43.57;;;5.50;99.90;5.90;94453.00;;;;7394084;19;20620;-79
2022/05/01 01:07:08;;;;;;;307.10;49.97;;;5.50;99.90;6.00;94449.00;;;;7395955;19;20175;-80
2022/05/01 01:09:47;;;;;;;165.47;42.83;;;5.50;99.90;6.20;94449.00;;;;7393864;19;20174;-79
2022/05/01 01:15:17;;;;;;;141.57;39.57;;;5.40;99.90;6.00;94440.00;;;;7395657;19;20152;-79
2022/05/01 01:17:46;;;;;;;126.20;41.93;;;5.40;99.90;6.00;94443.00;;;;7392836;19;20133;-80
2022/05/01 01:20:17;;;;;;;209.17;49.33;;;5.50;99.90;6.10;94461.00;;;;7393756;19;20161;-80
2022/05/01 01:22:58;;;;;;;221.00;43.33;;;5.50;99.90;6.10;94459.00;;;;7395464;19;20169;-80
2022/05/01 01:25:31;;;;;;;208.73;44.97;;;5.60;99.90;6.10;94414.00;;;;7395299;19;20133;-81
2022/05/01 01:28:08;;;;;;;376.97;52.40;;;5.50;99.90;6.00;94423.00;;;;7392654;19;20152;-80
2022/05/01 01:33:30;;;;;;;626.97;70.13;;;5.60;99.90;6.00;94432.00;;;;7390078;19;20173;-80
2022/05/01 01:36:03;;;;;;;389.83;57.17;;;5.60;99.90;6.10;94426.00;;;;7396823;19;20132;-80
2022/05/01 01:38:30;;;;;;;630.77;69.47;;;5.60;99.90;6.10;94428.00;;;;7393923;19;20152;-80
2022/05/01 01:41:10;;;;;;;504.70;63.30;;;5.60;99.90;6.10;94444.00;;;;7393036;19;20120;-80
2022/05/01 01:43:38;;;;;;;155.40;41.50;;;5.60;99.90;6.10;94424.00;;;;7392808;19;20196;-80
2022/05/01 01:46:11;;;;;;;248.23;45.90;;;5.60;99.90;6.10;94432.00;;;;7392190;19;20158;-80
2022/05/01 01:48:45;;;;;;;524.30;61.73;;;5.60;99.90;6.20;94393.00;;;;7393264;19;20518;-80
2022/05/01 01:51:19;;;;;;;711.07;80.77;;;5.60;99.90;6.10;94417.00;;;;7392945;19;20153;-79
2022/05/01 01:53:47;;;;;;;265.60;43.00;;;5.60;99.90;6.20;94441.00;;;;7397527;19;20170;-80
2022/05/01 01:56:18;;;;;;;820.00;83.77;;;5.60;99.90;6.10;94424.00;;;;7391473;19;20648;-79
2022/05/01 01:58:51;;;;;;;678.73;74.90;;;5.60;99.90;6.10;94437.00;;;;7392130;19;20133;-80
2022/05/01 02:01:19;;;;;;;367.30;50.53;;;5.60;99.90;6.10;94421.00;;;;7390131;19;20145;-81
2022/05/01 02:03:46;;;;;;;187.23;42.47;;;5.60;99.90;6.20;94439.00;;;;7390592;19;20521;-80
2022/05/01 02:06:32;;;;;;;817.53;80.50;;;5.60;99.90;6.20;94400.00;;;;7392163;19;20645;-80
2022/05/01 02:09:07;;;;;;;733.03;74.27;;;5.60;99.90;6.10;94391.00;;;;7391128;19;20547;-80
2022/05/01 02:11:41;;;;;;;544.93;67.83;;;5.60;99.90;6.10;94400.00;;;;7389475;19;20222;-81
2022/05/01 02:14:10;;;;;;;208.43;44.80;;;5.60;99.90;6.20;94400.00;;;;7390892;19;20124;-81
2022/05/01 02:16:39;;;;;;;240.93;48.23;;;5.50;99.90;6.00;94421.00;;;;7394464;19;20153;-80
2022/05/01 02:19:13;;;;;;;200.93;45.23;;;5.50;99.90;6.10;94401.00;;;;7390811;19;20626;-80
2022/05/01 02:21:40;;;;;;;425.20;57.93;;;5.50;1.00;6.30;94419.00;;;;7389789;19;20145;-80
2022/05/01 02:24:12;;;;;;;393.13;52.57;;;5.50;1.00;6.10;94429.00;;;;7391404;19;20175;-80
2022/05/01 02:26:46;;;;;;;898.13;83.67;;;5.50;1.00;6.10;94420.00;;;;7390509;19;20152;-81
2022/05/01 02:29:13;;;;;;;489.43;59.50;;;5.50;1.00;6.10;94412.00;;;;7390116;19;20136;-81
2022/05/01 02:31:43;;;;;;;272.27;45.20;;;5.50;1.00;6.10;94411.00;;;;7390563;19;20157;-81
2022/05/01 02:34:16;;;;;;;558.20;60.10;;;5.50;1.00;6.10;94390.00;;;;7391383;19;20491;-81
2022/05/01 02:36:43;;;;;;;558.93;60.17;;;5.50;1.00;6.10;94396.00;;;;7389439;19;20608;-80
2022/05/01 02:39:11;;;;;;;731.13;71.20;;;5.50;1.00;6.10;94404.00;;;;7393169;19;20628;-80
2022/05/01 02:41:45;;;;;;;251.37;46.00;;;5.60;1.00;6.10;94400.00;;;;7390371;19;20149;-79
2022/05/01 02:44:12;;;;;;;382.17;54.00;;;5.60;1.00;6.20;94391.00;;;;7389428;19;20148;-79
2022/05/01 02:46:39;;;;;;;583.83;64.77;;;5.60;1.00;6.00;94377.00;;;;7389575;19;20169;-81
2022/05/01 02:49:13;;;;;;;636.47;67.67;;;5.60;1.00;6.00;94410.00;;;;7390550;19;20137;-79
2022/05/01 02:51:40;;;;;;;346.13;49.33;;;5.60;1.00;6.20;94391.00;;;;7387314;19;20618;-80
2022/05/01 02:54:08;;;;;;;404.30;53.10;;;5.60;1.00;6.10;94395.00;;;;7391714;19;20193;-80
2022/05/01 02:56:41;;;;;;;602.97;66.17;;;5.50;1.00;6.10;94415.00;;;;7393263;19;20141;-79
2022/05/01 02:59:09;;;;;;;136.20;39.27;;;5.50;1.00;6.00;94387.00;;;;7395106;19;20165;-80
2022/05/01 03:01:37;;;;;;;364.77;54.37;;;5.50;1.00;6.10;94380.00;;;;7391784;19;20145;-80
2022/05/01 03:04:11;;;;;;;240.40;45.13;;;5.50;1.00;6.10;94409.00;;;;7387742;19;20141;-80
2022/05/01 03:06:52;;;;;;;248.60;46.30;;;5.50;1.00;6.00;94365.00;;;;7392750;19;20172;-81
2022/05/01 03:09:26;;;;;;;236.33;42.97;;;5.50;1.00;6.00;94406.00;;;;7390697;19;20144;-80
2022/05/01 03:11:53;;;;;;;110.37;36.73;;;5.50;1.00;6.10;94375.00;;;;7389175;19;20141;-79
2022/05/01 03:14:23;;;;;;;112.93;36.30;;;5.50;1.00;6.10;94374.00;;;;7395530;19;20133;-80
2022/05/01 03:16:57;;;;;;;138.20;39.13;;;5.50;1.00;6.10;94391.00;;;;7397417;19;20547;-80
2022/05/01 03:22:16;;;;;;;101.50;36.03;;;5.40;1.00;6.10;94371.00;;;;7397577;19;20152;-81
2022/05/01 03:24:45;;;;;;;90.50;33.43;;;5.40;1.00;6.10;94368.00;;;;7396145;19;20133;-81
2022/05/01 03:27:12;;;;;;;94.57;33.20;;;5.40;1.00;6.10;94367.00;;;;7397829;19;20678;-79
2022/05/01 03:30:15;;;;;;;96.47;35.27;;;5.40;1.00;6.00;94352.00;;;;7399441;19;20152;-80
2022/05/01 03:32:32;;;;;;;95.23;33.57;;;5.40;1.00;6.00;94355.00;;;;7399198;19;20682;-79
2022/05/01 03:35:07;;;;;;;89.83;31.73;;;5.40;1.00;6.00;94321.00;;;;7400946;19;20620;-79
2022/05/01 03:37:34;;;;;;;69.97;30.40;;;5.40;1.00;5.90;94361.00;;;;7392803;19;20129;-81
2022/05/01 03:40:01;;;;;;;63.70;30.20;;;5.40;1.00;5.80;94397.00;;;;7397680;19;20141;-80
2022/05/01 03:42:34;;;;;;;66.67;29.77;;;5.40;1.00;5.90;94363.00;;;;7397680;19;20636;-79
2022/05/01 03:45:02;;;;;;;57.93;28.17;;;5.40;1.00;5.90;94389.00;;;;7396067;19;20124;-81
2022/05/01 03:47:29;;;;;;;53.20;27.33;;;5.40;1.00;6.00;94358.00;;;;7398118;19;20181;-79
2022/05/01 03:50:04;;;;;;;56.73;27.03;;;5.40;1.00;6.00;94356.00;;;;7394660;19;20140;-80
2022/05/01 03:52:33;;;;;;;50.17;26.43;;;5.40;1.00;5.90;94355.00;;;;7399310;19;20137;-81
2022/05/01 03:55:00;;;;;;;53.87;26.47;;;5.40;1.00;6.00;94372.00;;;;7395986;19;20600;-80
2022/05/01 03:57:35;;;;;;;46.67;26.07;;;5.40;1.00;6.00;94370.00;;;;7399301;19;20145;-81
2022/05/01 04:00:02;;;;;;;42.87;23.87;;;5.40;1.00;6.00;94367.00;;;;7395595;19;20170;-81
2022/05/01 04:02:29;;;;;;;42.00;23.63;;;5.40;1.00;6.00;94381.00;;;;7399956;19;20178;-80
2022/05/01 04:05:03;;;;;;;38.70;23.23;;;5.40;1.00;6.10;94364.00;;;;7396590;19;20155;-81
2022/05/01 04:07:43;;;;;;;44.07;24.20;;;5.40;1.00;6.00;94364.00;;;;7396745;19;20673;-81
2022/05/01 04:10:17;;;;;;;34.00;21.37;;;5.40;1.00;6.00;94380.00;;;;7387618;19;20665;-80
2022/05/01 04:12:45;;;;;;;41.37;23.60;;;5.40;1.00;6.00;94391.00;;;;7395220;19;20145;-81
2022/05/01 04:15:14;;;;;;;42.70;23.67;;;5.40;1.00;6.00;94361.00;;;;7396394;19;20129;-81
2022/05/01 04:17:49;;;;;;;40.73;23.50;;;5.40;1.00;6.00;94386.00;;;;7401243;19;20159;-80
2022/05/01 04:20:17;;;;;;;39.73;22.27;;;5.40;1.00;6.10;94397.00;;;;7397196;19;20510;-79
2022/05/01 04:22:48;;;;;;;44.40;23.33;;;5.40;1.00;6.10;94385.00;;;;7401577;19;20148;-81
2022/05/01 04:25:26;;;;;;;41.00;23.37;;;5.50;1.00;6.10;94376.00;;;;7397617;19;20178;-78
2022/05/01 04:28:01;;;;;;;37.83;23.17;;;5.50;1.00;6.00;94402.00;;;;7398989;19;20145;-80
2022/05/01 04:30:36;;;;;;;36.47;21.80;;;5.50;1.00;6.20;94395.00;;;;7399466;19;20616;-80
2022/05/01 04:33:10;;;;;;;33.87;22.03;;;5.50;1.00;6.10;94389.00;;;;7402046;19;20189;-81
2022/05/01 04:35:48;;;;;;;32.07;21.20;;;5.50;1.00;6.10;94384.00;;;;7397393;19;20152;-80
2022/05/01 04:38:25;;;;;;;39.47;22.87;;;5.50;1.00;6.10;94372.00;;;;7397600;19;20153;-80
2022/05/01 04:41:00;;;;;;;32.83;20.50;;;5.50;1.00;6.10;94399.00;;;;7397983;19;20149;-80
2022/05/01 04:43:30;;;;;;;29.20;19.30;;;5.50;99.90;6.00;94325.00;;;;7396350;19;20612;-80
2022/05/01 04:45:58;;;;;;;32.63;19.87;;;5.60;99.90;6.10;94410.00;;;;7396236;19;20145;-80
2022/05/01 04:48:33;;;;;;;30.73;20.20;;;5.60;99.90;6.10;94388.00;;;;7395377;19;20154;-80
2022/05/01 04:51:00;;;;;;;26.97;19.00;;;5.60;99.90;6.20;94409.00;;;;7396735;19;20160;-82
2022/05/01 04:53:29;;;;;;;29.90;20.53;;;5.60;99.90;6.40;94404.00;;;;7394853;19;20551;-81
2022/05/01 04:58:50;;;;;;;35.13;22.60;;;5.60;99.90;6.30;94419.00;;;;7398629;19;20200;-81
2022/05/01 05:01:23;;;;;;;44.80;26.30;;;5.60;99.90;6.40;94400.00;;;;7396782;19;20182;-81
2022/05/01 05:03:51;;;;;;;55.03;27.97;;;5.60;99.90;6.30;94394.00;;;;7399489;19;20132;-81
2022/05/01 05:06:21;;;;;;;50.73;26.10;;;5.60;99.90;6.40;94362.00;;;;7399345;19;20162;-82
2022/05/01 05:11:47;;;;;;;46.70;27.47;;;5.60;99.90;6.30;94397.00;;;;7399959;19;20163;-81
2022/05/01 05:14:23;;;;;;;51.13;26.93;;;5.60;99.90;6.30;94401.00;;;;7399747;19;20603;-81
2022/05/01 05:16:57;;;;;;;44.57;26.17;;;5.60;99.90;6.20;94417.00;;;;7401958;19;20623;-81
2022/05/01 05:19:34;;;;;;;45.37;25.47;;;5.60;84.30;6.30;94397.00;;;;7399502;19;20869;-81
2022/05/01 05:22:03;;;;;;;51.17;26.93;;;5.70;62.90;6.30;94404.00;;;;7400449;19;20148;-81
2022/05/01 05:24:31;;;;;;;48.70;25.30;;;5.70;44.00;6.40;94403.00;;;;7397482;19;20625;-81
2022/05/01 05:27:06;;;;;;;45.00;24.53;;;5.70;11.70;6.30;94417.00;;;;7399304;19;20156;-80
2022/05/01 05:29:35;;;;;;;46.57;24.57;;;5.80;1.00;6.40;94437.00;;;;7394493;19;20178;-81
2022/05/01 05:32:03;;;;;;;40.73;24.10;;;5.80;1.00;6.50;94387.00;;;;7395762;19;20144;-81
2022/05/01 05:34:37;;;;;;;37.67;22.30;;;5.80;1.00;6.70;94432.00;;;;7399549;19;20148;-81
2022/05/01 05:37:04;;;;;;;35.53;22.57;;;5.80;1.00;6.50;94434.00;;;;7401759;19;20151;-82
2022/05/01 05:39:32;;;;;;;36.93;21.80;;;5.80;1.00;6.60;94416.00;;;;7404214;19;20136;-82
2022/05/01 05:42:08;;;;;;;37.13;22.43;;;5.90;1.00;6.60;94415.00;;;;7398831;19;20203;-81
2022/05/01 05:44:35;;;;;;;39.30;23.83;;;6.00;1.00;6.50;94446.00;;;;7400016;19;20187;-81
2022/05/01 05:47:04;;;;;;;40.53;22.87;;;6.00;99.90;6.50;94413.00;;;;7399824;19;20188;-82
2022/05/01 05:49:38;;;;;;;40.80;24.50;;;6.10;99.90;6.60;94415.00;;;;7401391;19;20177;-81
2022/05/01 05:52:06;;;;;;;41.37;24.77;;;6.10;99.90;6.70;94439.00;;;;7399997;19;20156;-82
2022/05/01 05:54:34;;;;;;;37.00;23.40;;;6.10;99.90;6.50;94436.00;;;;7401028;19;20157;-81
2022/05/01 05:57:08;;;;;;;39.70;23.93;;;6.20;99.90;6.60;94396.00;;;;7398990;19;20545;-81
2022/05/01 05:59:35;;;;;;;33.87;22.30;;;6.30;99.90;6.60;94426.00;;;;7398055;19;20168;-82
2022/05/01 06:02:03;;;;;;;37.57;22.57;;;6.40;45.20;7.00;94418.00;;;;7403030;19;20571;-82
2022/05/01 06:04:44;;;;;;;32.67;22.03;;;6.50;1.00;7.20;94403.00;;;;7397908;19;20154;-80
2022/05/01 06:07:18;;;;;;;34.30;22.13;;;6.50;1.00;7.30;94399.00;;;;7396140;19;20181;-81
2022/05/01 06:09:53;;;;;;;33.43;21.93;;;6.50;1.00;7.20;94451.00;;;;7397024;19;20125;-81
2022/05/01 06:12:21;;;;;;;34.63;22.73;;;6.50;1.00;7.30;94417.00;;;;7395691;19;20149;-81
2022/05/01 06:14:48;;;;;;;33.73;22.40;;;6.50;1.00;7.10;94423.00;;;;7393460;19;20141;-81
2022/05/01 06:17:22;;;;;;;35.80;23.00;;;6.60;1.00;7.20;94449.00;;;;7398729;19;20180;-81
2022/05/01 06:19:50;;;;;;;31.33;21.57;;;6.70;1.00;7.20;94441.00;;;;7396949;19;20141;-82
2022/05/01 06:22:17;;;;;;;31.50;21.43;;;6.80;1.00;7.20;94426.00;;;;7396348;19;20152;-80
2022/05/01 06:24:51;;;;;;;27.90;20.27;;;6.80;99.90;7.10;94455.00;;;;7393009;19;20478;-81
2022/05/01 06:27:18;;;;;;;33.70;20.73;;;6.80;99.90;7.00;94456.00;;;;7398364;19;20215;-80
2022/05/01 06:29:46;;;;;;;31.50;20.97;;;6.90;99.90;7.30;94421.00;;;;7399216;19;20631;-80
2022/05/01 06:32:20;;;;;;;31.93;22.07;;;6.90;99.90;7.40;94451.00;;;;7395367;19;20174;-81
2022/05/01 06:34:51;;;;;;;31.03;20.33;;;6.90;99.90;7.30;94453.00;;;;7397152;19;20164;-81
2022/05/01 06:37:18;;;;;;;27.60;20.30;;;6.90;99.90;7.40;94414.00;;;;7396695;19;20157;-81
2022/05/01 06:39:53;;;;;;;32.23;19.37;;;6.90;99.90;7.60;94405.00;;;;7397033;19;20155;-80
2022/05/01 06:42:21;;;;;;;29.73;21.13;;;7.00;99.90;7.70;94455.00;;;;7397752;19;20153;-81
2022/05/01 06:44:51;;;;;;;30.50;20.50;;;7.00;99.90;7.90;94453.00;;;;7394368;19;20157;-81
2022/05/01 06:47:28;;;;;;;27.93;19.50;;;7.10;99.90;7.80;94455.00;;;;7399694;19;20160;-81
2022/05/01 06:49:56;;;;;;;29.27;21.73;;;7.20;99.90;7.80;94447.00;;;;7406381;19;20135;-80
2022/05/01 06:52:25;;;;;;;29.40;20.40;;;7.20;99.90;7.90;94457.00;;;;7404632;19;20157;-81
2022/05/01 06:55:00;;;;;;;30.37;20.93;;;7.30;99.90;8.00;94428.00;;;;7405160;19;20125;-80
2022/05/01 06:57:29;;;;;;;25.77;18.57;;;7.30;99.90;8.00;94458.00;;;;7402224;19;20168;-80
2022/05/01 06:59:57;;;;;;;24.80;17.93;;;7.30;99.90;8.00;94438.00;;;;7403817;19;20612;-81
2022/05/01 07:02:31;;;;;;;21.83;16.23;;;7.40;55.40;8.10;94441.00;;;;7402596;19;20514;-80
2022/05/01 07:04:59;;;;;;;21.60;17.10;;;7.50;1.00;8.30;94438.00;;;;7401555;19;20136;-80
2022/05/01 07:07:27;;;;;;;22.57;18.47;;;7.60;1.00;8.50;94462.00;;;;7404435;19;20289;-80
2022/05/01 07:10:01;;;;;;;25.83;19.23;;;7.60;99.90;9.00;94454.00;;;;7403794;19;20195;-79
2022/05/01 07:12:29;;;;;;;28.80;17.27;;;7.90;1.00;9.20;94453.00;;;;7403415;19;20507;-79
2022/05/01 07:14:56;;;;;;;22.27;16.60;;;8.10;1.00;9.40;94441.00;;;;7405130;19;20152;-79
2022/05/01 07:17:30;;;;;;;21.65;16.42;;;8.40;99.90;9.80;94375.00;;;;7399262;19;20608;-79
2022/05/01 07:19:58;;;;;;;21.48;15.63;;;8.80;99.90;9.80;94423.00;;;;7400661;19;20503;-79
2022/05/01 07:22:34;;;;;;;19.98;15.40;;;8.90;1.00;9.70;94435.00;;;;7402282;19;20178;-79
2022/05/01 07:25:39;;;;;;;19.60;16.20;;;8.80;99.90;9.40;94393.00;;;;7399560;19;20148;-79
2022/05/01 07:28:07;;;;;;;19.65;15.40;;;8.80;99.90;9.50;94445.00;;;;7397959;19;20140;-80
2022/05/01 07:30:41;;;;;;;20.38;15.43;;;8.90;99.90;9.80;94409.00;;;;7400996;19;20505;-78
2022/05/01 07:33:10;;;;;;;18.40;14.60;;;9.00;99.90;10.50;94426.00;;;;7401262;19;20149;-78
2022/05/01 07:36:04;;;;;;;16.33;13.23;;;8.90;23.20;10.70;94443.00;;;;7402047;19;20166;-79
2022/05/01 07:38:40;;;;;;;15.10;12.60;;;9.30;51.40;11.70;94395.00;;;;7404262;19;20140;-80
2022/05/01 07:41:11;;;;;;;15.05;12.82;;;9.80;1.00;12.30;94414.00;;;;7401425;19;20145;-80
2022/05/01 07:43:39;;;;;;;16.40;13.10;;;10.30;99.90;12.40;94396.00;;;;7402866;19;20180;-78
2022/05/01 07:46:13;;;;;;;15.20;12.80;;;10.20;98.60;12.50;94422.00;;;;7403785;19;20173;-79
2022/05/01 07:48:41;;;;;;;13.38;11.80;;;10.60;1.00;11.90;94399.00;;;;7404832;19;20163;-78
2022/05/01 07:51:09;;;;;;;13.02;11.55;;;10.90;1.00;12.40;94423.00;;;;7405248;19;20136;-78
2022/05/01 07:53:44;;;;;;;14.38;11.88;;;11.10;1.00;12.10;94403.00;;;;7400951;19;20204;-78
2022/05/01 07:56:11;;;;;;;13.30;10.13;;;11.20;1.00;11.80;94370.00;;;;7403061;19;20224;-79
2022/05/01 07:58:39;;;;;;;14.13;12.48;;;11.40;1.00;12.10;94387.00;;;;7399891;19;20133;-77
2022/05/01 08:01:13;;;;;;;13.88;11.02;;;11.60;1.00;12.60;94395.00;;;;7403713;19;20282;-78
2022/05/01 08:06:40;;;;;;;13.77;11.30;;;11.90;1.00;12.50;94429.00;;;;7403753;19;20616;-77
2022/05/01 08:09:12;;;;;;;14.10;11.05;;;11.90;99.90;12.50;94405.00;;;;7397887;19;20160;-79
2022/05/01 08:11:49;;;;;;;15.43;11.35;;;11.70;99.90;12.00;94402.00;;;;7398494;19;20152;-78
2022/05/01 08:14:16;;;;;;;13.25;11.63;;;11.30;99.90;11.30;94421.00;;;;7398098;19;20140;-78
2022/05/01 08:16:49;;;;;;;12.07;10.88;;;11.10;99.90;11.00;94421.00;;;;7393916;19;20152;-78
2022/05/01 08:22:13;;;;;;;12.88;11.07;;;10.60;1.00;10.60;94420.00;;;;7398194;19;20497;-78
2022/05/01 08:24:47;;;;;;;12.55;11.02;;;10.50;99.90;10.60;94419.00;;;;7398748;19;20152;-79
2022/05/01 08:27:25;;;;;;;12.27;10.73;;;10.40;99.90;11.00;94388.00;;;;7393231;19;20136;-79
2022/05/01 08:30:02;;;;;;;14.38;10.88;;;10.30;1.00;11.40;94381.00;;;;7402899;19;20140;-78
2022/05/01 08:32:29;;;;;;;12.52;10.65;;;10.60;1.00;11.40;94424.00;;;;7399779;19;20159;-79
2022/05/01 08:35:02;;;;;;;12.80;10.93;;;10.90;1.40;11.70;94411.00;;;;7398262;19;20145;-77
2022/05/01 08:37:36;;;;;;;13.98;11.77;;;11.10;99.90;11.50;94420.00;;;;7400300;19;20523;-78
2022/05/01 08:40:04;;;;;;;12.80;11.35;;;11.00;99.90;11.70;94427.00;;;;7399903;19;20164;-78
2022/05/01 08:42:38;;;;;;;14.70;11.85;;;10.80;99.90;11.60;94384.00;;;;7401044;19;20544;-79
2022/05/01 08:45:16;;;;;;;13.45;11.38;;;10.50;99.90;11.50;94398.00;;;;7399622;19;20469;-80
2022/05/01 08:48:05;;;;;;;12.85;10.68;;;10.60;1.00;11.80;94396.00;;;;7395565;19;20739;-79
2022/05/01 08:50:42;;;;;;;14.55;10.93;;;10.60;1.00;12.10;94441.00;;;;7393858;19;20227;-78
2022/05/01 08:53:17;;;;;;;12.55;10.65;;;10.80;99.90;12.20;94362.00;;;;7395587;19;20604;-78
2022/05/01 08:55:51;;;;;;;12.60;10.85;;;11.00;99.90;13.00;94410.00;;;;7397499;19;20166;-78
2022/05/01 08:58:26;;;;;;;12.95;9.88;;;11.60;99.90;13.50;94418.00;;;;7397216;19;20620;-77
2022/05/01 09:01:03;;;;;;;19.63;14.80;;;11.90;58.90;13.50;94420.00;;;;7390151;19;20156;-77
2022/05/01 09:03:34;;;;;;;19.50;14.18;;;12.20;99.90;13.60;94390.00;;;;7393081;19;20890;-78
2022/05/01 09:06:11;;;;;;;13.23;10.85;;;12.50;99.90;13.10;94440.00;;;;7393371;19;20525;-77
2022/05/01 09:08:48;;;;;;;12.05;9.93;;;12.70;18.70;13.20;94427.00;;;;7391082;19;20169;-78
2022/05/01 09:14:11;;;;;;;11.45;9.88;;;12.50;1.00;12.90;94442.00;;;;7392966;19;20184;-77
2022/05/01 09:17:16;;;;;;;10.68;9.38;;;12.30;1.00;12.70;94433.00;;;;7391809;19;20452;-77
2022/05/01 09:19:50;;;;;;;14.45;9.45;;;;;13.00;94438.00;;;;7398163;19;20227;-78
2022/05/01 09:22:24;;;;;;;11.43;9.18;;;;;13.10;94433.00;;;;7393591;19;20162;-78
2022/05/01 09:24:53;;;;;;;10.73;8.70;;;;;13.20;94435.00;;;;7394784;19;20504;-78
2022/05/01 09:27:31;;;;;;;11.52;9.60;;;;;13.50;94440.00;;;;7398165;19;20177;-77
2022/05/01 09:30:18;;;;;;;11.52;8.95;;;;;13.50;94437.00;;;;7398205;19;20129;-77
2022/05/01 09:32:47;;;;;;;12.23;8.68;;;;;14.10;94438.00;;;;7399971;19;20136;-77
2022/05/01 09:35:29;;;;;;;9.38;7.68;;;;;14.70;94427.00;;;;7400285;19;20139;-77
2022/05/01 09:38:13;;;;;;;10.40;8.10;;;;;14.70;94429.00;;;;7396232;19;20133;-78
2022/05/01 09:40:50;;;;;;;9.63;8.55;;;;;14.40;94436.00;;;;7394362;19;20145;-76
2022/05/01 09:43:43;;;;;;;8.75;7.90;;;;;14.00;94434.00;;;;7395388;19;20165;-78
2022/05/01 09:46:29;;;;;;;9.05;8.15;;;;;13.50;94440.00;;;;7396188;19;20600;-78
2022/05/01 09:49:10;;;;;;;12.43;7.65;;;;;13.20;94434.00;;;;7395388;19;20156;-78
2022/05/01 09:51:56;;;;;;;10.38;7.57;;;;;13.60;94434.00;;;;7399231;19;20152;-78
2022/05/01 09:54:26;;;;;;;9.48;8.13;;;;;13.80;94442.00;;;;7400893;19;20137;-76
2022/05/01 09:57:01;;;;;;;9.88;8.25;;;;;13.80;94446.00;;;;7394937;19;20142;-78
2022/05/01 09:59:44;;;;;;;9.75;8.75;;;;;13.80;94450.00;;;;7398658;19;20151;-78
2022/05/01 10:02:28;;;;;;;9.45;8.40;;;;;13.90;94439.00;;;;7398697;19;20685;-77
2022/05/01 10:05:06;;;;;;;10.60;8.75;;;;;13.90;94449.00;;;;7395348;19;20217;-78
2022/05/01 10:07:56;;;;;;;9.88;8.57;;;;;14.10;94441.00;;;;7395308;19;20175;-77
2022/05/01 10:10:35;;;;;;;10.88;9.15;;;;;13.90;94444.00;;;;7394922;19;20169;-77
2022/05/01 10:13:11;;;;;;;10.32;8.93;;;;;14.30;94445.00;;;;7391075;19;20690;-77
2022/05/01 10:16:03;;;;;;;11.05;8.50;;;;;14.10;94446.00;;;;7394369;19;20136;-78
2022/05/01 10:18:46;;;;;;;12.07;8.65;;;;;14.20;94447.00;;;;7395071;19;20148;-78
2022/05/01 10:21:36;;;;;;;10.32;8.90;;;;;14.50;94446.00;;;;7395278;19;20149;-79
2022/05/01 10:24:11;;;;;;;9.02;7.88;;;;;14.10;94453.00;;;;7396993;19;20607;-78
2022/05/01 10:27:01;;;;;;;10.10;8.85;;;;;14.70;94450.00;;;;7397093;19;20169;-79
2022/05/01 10:32:46;;;;;;;9.80;8.70;;;;;14.40;94439.00;;;;7398455;19;20486;-79
2022/05/01 10:35:54;;;;;;;10.40;8.82;;;;;14.50;94435.00;;;;7398944;19;20145;-78
2022/05/01 10:38:42;;;;;;;10.10;9.05;;;;;14.00;94445.00;;;;7397177;19;20220;-78
2022/05/01 10:41:18;;;;;;;10.10;8.63;;;;;14.40;94429.00;;;;7399555;19;20608;-78
2022/05/01 10:44:01;;;;;;;11.68;9.35;;;;;14.70;94425.00;;;;7397419;19;20140;-78
2022/05/01 10:46:35;;;;;;;9.57;8.02;;;;;14.70;94437.00;;;;7397624;19;20644;-78
2022/05/01 10:49:05;;;;;;;10.30;8.70;;;;;14.90;94425.00;;;;7397947;19;20153;-78
2022/05/01 10:51:42;;;;;;;9.95;8.68;;;;;14.60;94424.00;;;;7395585;19;20676;-79
2022/05/01 10:54:19;;;;;;;10.55;8.02;;;;;15.00;94417.00;;;;7395903;19;20681;-76
2022/05/01 10:57:04;;;;;;;11.40;9.30;;;;;14.70;94420.00;;;;7395297;19;20526;-78
2022/05/01 10:59:47;;;;;;;9.57;8.57;;;;;15.20;94418.00;;;;7394241;19;20641;-77
2022/05/01 11:02:22;;;;;;;11.13;8.85;;;;;16.20;94417.00;;;;7388534;19;20136;-76
2022/05/01 11:04:58;;;;;;;9.55;8.18;;;;;14.60;94418.00;;;;7394924;19;20145;-75
2022/05/01 11:07:40;;;;;;;11.35;8.52;;;;;14.90;94411.00;;;;7396446;19;20174;-77
2022/05/01 11:10:14;;;;;;;9.90;8.40;;;;;14.90;94415.00;;;;7389941;19;20520;-77
2022/05/01 11:12:43;;;;;;;15.15;8.80;;;;;14.70;94413.00;;;;7396444;19;20159;-75
2022/05/01 11:15:11;;;;;;;9.73;8.52;;;;;14.80;94410.00;;;;7394171;19;20596;-76
2022/05/01 11:17:49;;;;;;;9.80;7.60;;;;;14.60;94414.00;;;;7397663;19;20152;-76
2022/05/01 11:20:23;;;;;;;9.00;8.05;;;;;14.30;94417.00;;;;7395927;19;20192;-76
2022/05/01 11:23:18;;;;;;;10.07;8.05;;;;;14.20;94418.00;;;;7394178;19;20939;-76
2022/05/01 11:25:48;;;;;;;10.10;7.95;;;;;14.00;94411.00;;;;7395197;19;20143;-77
2022/05/01 11:28:49;;;;;;;11.85;8.35;;;;;14.30;94409.00;;;;7393564;19;20160;-77
2022/05/01 11:31:36;;;;;;;10.90;8.00;;;;;13.80;94416.00;;;;7393228;19;20150;-78
2022/05/01 11:34:20;;;;;;;11.23;7.75;;;;;13.90;94420.00;;;;7398933;19;20144;-77
2022/05/01 11:37:01;;;;;;;13.45;8.13;;;;;13.80;94416.00;;;;7401107;19;20621;-77
2022/05/01 11:39:57;;;;;;;8.38;7.57;;;;;14.20;94428.00;;;;7403766;19;20502;-77
2022/05/01 11:42:29;;;;;;;12.50;8.75;;;;;14.40;94417.00;;;;7402066;19;20266;-77
2022/05/01 11:45:05;;;;;;;10.38;8.05;;;;;14.40;94416.00;;;;7401136;19;20280;-77
2022/05/01 11:47:34;;;;;;;10.73;7.80;;;;;14.10;94418.00;;;;7399459;19;20169;-76
2022/05/01 11:50:03;;;;;;;9.50;8.50;;;;;14.10;94420.00;;;;7403192;19;20156;-79
2022/05/01 11:52:39;;;;;;;9.00;7.85;;;;;14.10;94422.00;;;;7400870;19;20212;-78
2022/05/01 11:55:08;;;;;;;10.15;8.00;;;;;14.20;94413.00;;;;7403993;19;20141;-78
2022/05/01 12:03:29;;;;;;;9.90;8.07;;;;;14.60;94408.00;;;;7402863;19;20153;-75
2022/05/01 12:06:04;;;;;;;11.10;9.10;;;;;14.90;94412.00;;;;7401413;19;20172;-77
2022/05/01 12:08:49;;;;;;;10.10;8.80;;;;;15.40;94414.00;;;;7398403;19;20169;-77
2022/05/01 12:11:28;;;;;;;14.52;9.30;;;;;15.70;94406.00;;;;7392668;19;20180;-77
2022/05/01 12:14:06;;;;;;;15.80;10.27;;;;;15.40;94398.00;;;;7398867;19;20140;-77